Time;durP1;ratioP1;P1;durP2;ratioP2;P2;SDS_P1;SDS_P2;PMS_P1;PMS_P2;Temp;Humidity;BMP_temperature;BMP_pressure;BME280_temperature;BME280_humidity;BME280_pressure;Samples;Min_cycle;Max_cycle;Signal;HPM_P1;HPM_P2
2023/06/22 00:00:49;;;;;;;;;;;26.50;74.50;;;;;;4804580;29;20038;-80
2023/06/22 00:03:14;;;;;;;25.63;19.65;;;26.50;73.40;;;;;;4804394;29;19913;-80
2023/06/22 00:05:40;;;;;;;22.10;18.43;;;26.40;74.50;;;;;;4803851;29;20042;-80
2023/06/22 00:08:06;;;;;;;27.00;19.73;;;26.40;74.90;;;;;;4804201;29;20096;-80
2023/06/22 00:10:32;;;;;;;27.27;21.10;;;26.40;75.30;;;;;;4805357;29;20070;-80
2023/06/22 00:12:58;;;;;;;24.97;20.47;;;26.40;75.70;;;;;;4805484;29;20064;-80
2023/06/22 00:15:24;;;;;;;25.27;19.60;;;26.30;76.00;;;;;;4788866;29;20280;-80
2023/06/22 00:17:52;;;;;;;28.47;20.97;;;26.30;76.30;;;;;;4805404;29;20091;-81
2023/06/22 00:20:18;;;;;;;25.10;19.88;;;26.30;76.20;;;;;;4814069;29;20026;-80
2023/06/22 00:22:47;;;;;;;23.40;20.85;;;26.20;76.20;;;;;;4805967;29;20035;-81
2023/06/22 00:25:13;;;;;;;28.85;22.23;;;26.20;76.40;;;;;;4822805;29;20037;-81
2023/06/22 00:27:39;;;;;;;25.48;19.95;;;26.10;76.60;;;;;;4814304;29;20066;-81
2023/06/22 00:30:06;;;;;;;25.40;20.88;;;26.20;77.00;;;;;;4789534;29;20035;-81
2023/06/22 00:32:32;;;;;;;25.92;21.48;;;26.10;76.90;;;;;;4804285;29;20042;-80
2023/06/22 00:34:58;;;;;;;25.27;21.23;;;26.10;77.00;;;;;;4789572;29;20041;-80
2023/06/22 00:37:25;;;;;;;27.43;21.87;;;26.10;77.20;;;;;;4805960;29;20067;-80
2023/06/22 00:39:53;;;;;;;24.58;21.15;;;26.00;77.50;;;;;;4814469;29;20065;-80
2023/06/22 00:42:19;;;;;;;27.13;20.48;;;25.90;78.20;;;;;;4822983;29;20042;-80
2023/06/22 00:44:46;;;;;;;29.63;21.60;;;25.90;78.10;;;;;;4823863;29;20034;-80
2023/06/22 00:47:16;;;;;;;24.00;21.33;;;25.90;78.20;;;;;;4823914;29;20026;-80
2023/06/22 00:49:42;;;;;;;26.25;21.50;;;25.90;77.90;;;;;;4822410;29;20034;-80
2023/06/22 00:52:09;;;;;;;27.88;23.30;;;25.80;78.60;;;;;;4821524;29;20041;-81
2023/06/22 00:54:38;;;;;;;26.42;21.55;;;25.80;78.70;;;;;;4804980;29;20035;-80
2023/06/22 00:57:04;;;;;;;24.35;21.35;;;25.80;78.30;;;;;;4791070;29;20031;-80
2023/06/22 00:59:32;;;;;;;24.73;22.13;;;25.80;78.50;;;;;;4804122;29;20039;-81
2023/06/22 01:01:58;;;;;;;26.00;22.30;;;25.90;78.80;;;;;;4805045;29;20043;-80
2023/06/22 01:04:35;;;;;;;25.20;21.52;;;25.80;79.30;;;;;;4803602;29;20479;-80
2023/06/22 01:07:13;;;;;;;28.73;22.10;;;25.80;79.00;;;;;;4804981;29;20101;-80
2023/06/22 01:10:12;;;;;;;24.67;22.15;;;25.80;79.20;;;;;;4803699;29;20115;-80
2023/06/22 01:12:45;;;;;;;27.52;24.05;;;25.80;79.50;;;;;;4803774;29;20046;-81
2023/06/22 01:15:19;;;;;;;27.00;24.13;;;25.70;79.80;;;;;;4804484;29;20486;-80
2023/06/22 01:17:48;;;;;;;34.10;26.73;;;25.70;79.70;;;;;;4803797;29;20460;-80
2023/06/22 01:20:16;;;;;;;26.98;22.80;;;25.60;80.10;;;;;;4788375;29;20030;-80
2023/06/22 01:23:11;;;;;;;29.27;24.42;;;25.60;80.00;;;;;;4787956;29;20035;-80
2023/06/22 01:26:05;;;;;;;32.00;23.65;;;25.60;79.70;;;;;;4782154;29;20043;-81
2023/06/22 01:28:43;;;;;;;26.52;23.73;;;25.60;78.50;;;;;;4803708;29;20039;-80
2023/06/22 01:31:14;;;;;;;29.63;25.08;;;25.60;78.80;;;;;;4792973;29;20065;-80
2023/06/22 01:33:43;;;;;;;28.02;23.45;;;25.60;79.90;;;;;;4825259;29;20046;-80
2023/06/22 01:36:10;;;;;;;28.52;24.05;;;25.60;79.70;;;;;;4826503;29;20109;-80
2023/06/22 01:38:37;;;;;;;;;;;25.50;80.50;;;;;;4810979;29;20519;-80
2023/06/22 01:41:03;;;;;;;28.67;23.10;;;25.50;78.70;;;;;;4824950;29;20388;-80
2023/06/22 01:43:30;;;;;;;31.45;25.23;;;25.50;80.10;;;;;;4824797;29;20041;-80
2023/06/22 01:45:57;;;;;;;28.00;22.17;;;25.40;80.50;;;;;;4826121;29;20034;-80
2023/06/22 01:48:25;;;;;;;28.80;22.90;;;25.40;80.80;;;;;;4813539;29;20067;-81
2023/06/22 01:50:53;;;;;;;28.08;22.52;;;25.40;80.80;;;;;;4807464;29;20100;-81
2023/06/22 01:53:20;;;;;;;29.33;23.42;;;25.40;81.00;;;;;;4808067;29;20087;-79
2023/06/22 01:55:46;;;;;;;29.27;22.98;;;25.40;81.00;;;;;;4806708;29;20039;-80
2023/06/22 01:58:13;;;;;;;29.50;23.27;;;25.40;81.30;;;;;;4807052;29;20463;-80
2023/06/22 02:00:42;;;;;;;27.48;23.05;;;25.40;81.20;;;;;;4806654;29;20073;-80
2023/06/22 02:03:16;;;;;;;27.00;23.45;;;25.40;81.10;;;;;;4808395;29;20110;-80
2023/06/22 02:06:04;;;;;;;30.52;25.08;;;25.40;80.90;;;;;;4806875;29;20519;-80
2023/06/22 02:08:37;;;;;;;30.15;24.23;;;25.40;80.20;;;;;;4807539;29;20114;-80
2023/06/22 02:11:05;;;;;;;26.88;24.00;;;25.40;81.70;;;;;;4806071;29;20122;-81
2023/06/22 02:13:32;;;;;;;32.08;25.23;;;25.40;82.20;;;;;;4807134;29;20121;-80
2023/06/22 02:15:57;;;;;;;30.55;25.63;;;25.40;82.30;;;;;;4806012;29;20043;-80
2023/06/22 02:18:23;;;;;;;28.97;25.57;;;25.40;83.00;;;;;;4807460;29;20034;-81
2023/06/22 02:20:49;;;;;;;33.63;24.13;;;25.40;83.60;;;;;;4805767;29;20070;-81
2023/06/22 02:23:15;;;;;;;32.70;26.90;;;25.40;84.00;;;;;;4805657;29;20035;-81
2023/06/22 02:25:44;;;;;;;33.33;26.58;;;25.30;84.30;;;;;;4805668;29;20065;-80
2023/06/22 02:28:10;;;;;;;37.00;26.50;;;25.40;84.20;;;;;;4791004;29;20086;-81
2023/06/22 02:30:38;;;;;;;32.33;25.67;;;25.30;84.60;;;;;;4806871;29;20620;-80
2023/06/22 02:33:06;;;;;;;34.72;25.38;;;25.30;84.20;;;;;;4807381;29;20038;-80
2023/06/22 02:35:35;;;;;;;32.50;25.37;;;25.30;84.30;;;;;;4805587;29;20042;-81
2023/06/22 02:38:03;;;;;;;32.53;25.83;;;25.40;84.80;;;;;;4805096;29;20027;-80
2023/06/22 02:40:29;;;;;;;30.58;25.42;;;25.30;85.30;;;;;;4806293;29;20031;-81
2023/06/22 02:42:58;;;;;;;;;;;25.30;85.20;;;;;;4806566;29;20031;-82
2023/06/22 02:45:23;;;;;;;31.73;26.60;;;25.30;83.10;;;;;;4806022;29;19938;-80
2023/06/22 02:47:50;;;;;;;34.80;27.00;;;25.30;83.60;;;;;;4805276;29;20031;-81
2023/06/22 02:50:16;;;;;;;35.95;27.35;;;25.30;83.70;;;;;;4804554;29;20070;-80
2023/06/22 02:52:42;;;;;;;30.33;26.43;;;25.30;84.20;;;;;;4803678;29;20416;-81
2023/06/22 02:55:08;;;;;;;33.20;27.17;;;25.30;84.00;;;;;;4804594;29;20038;-80
2023/06/22 02:57:34;;;;;;;33.10;27.92;;;25.30;84.20;;;;;;4805183;29;20039;-80
2023/06/22 03:00:06;;;;;;;36.00;27.90;;;25.20;84.50;;;;;;4804181;29;20085;-81
2023/06/22 03:02:32;;;;;;;32.70;26.75;;;25.20;84.40;;;;;;4789910;29;20039;-81
2023/06/22 03:04:58;;;;;;;35.80;27.10;;;25.20;84.60;;;;;;4789794;29;20042;-80
2023/06/22 03:07:24;;;;;;;31.63;28.23;;;25.20;84.70;;;;;;4806843;29;20033;-80
2023/06/22 03:09:51;;;;;;;36.30;27.02;;;25.20;84.70;;;;;;4805307;29;20088;-80
2023/06/22 03:12:17;;;;;;;32.03;28.63;;;25.10;85.10;;;;;;4805437;29;20087;-80
2023/06/22 03:14:49;;;;;;;34.50;27.40;;;25.20;84.90;;;;;;4804710;29;20122;-80
2023/06/22 03:17:16;;;;;;;32.35;28.80;;;25.10;85.10;;;;;;4807355;29;20498;-80
2023/06/22 03:19:42;;;;;;;35.10;26.50;;;25.10;85.30;;;;;;4808442;29;20086;-80
2023/06/22 03:22:08;;;;;;;31.07;27.17;;;25.10;85.60;;;;;;4797982;29;20499;-80
2023/06/22 03:24:34;;;;;;;34.50;26.23;;;25.10;85.70;;;;;;4814067;29;20041;-81
2023/06/22 03:27:01;;;;;;;32.50;28.60;;;25.10;85.80;;;;;;4805785;29;20033;-80
2023/06/22 03:29:27;;;;;;;37.17;27.25;;;25.10;85.50;;;;;;4806482;29;20507;-80
2023/06/22 03:31:52;;;;;;;33.13;29.23;;;25.10;85.80;;;;;;4790193;29;20070;-81
2023/06/22 03:34:18;;;;;;;33.30;28.13;;;25.10;85.60;;;;;;4805342;29;20059;-80
2023/06/22 03:36:45;;;;;;;38.37;29.60;;;25.10;85.80;;;;;;4805299;29;20131;-80
2023/06/22 03:39:11;;;;;;;32.92;27.00;;;25.10;86.10;;;;;;4804516;29;20035;-82
2023/06/22 03:41:37;;;;;;;35.87;28.57;;;25.10;86.40;;;;;;4788912;29;20034;-80
2023/06/22 03:44:03;;;;;;;31.77;28.17;;;25.00;86.80;;;;;;4806057;29;20035;-82
2023/06/22 03:46:28;;;;;;;31.07;27.67;;;25.00;87.20;;;;;;4804109;29;20073;-82
2023/06/22 03:48:54;;;;;;;33.67;27.40;;;24.90;88.00;;;;;;4804363;29;20062;-82
2023/06/22 03:51:20;;;;;;;36.60;28.43;;;24.90;89.00;;;;;;4807463;29;20042;-83
2023/06/22 03:53:46;;;;;;;38.53;28.50;;;24.90;89.10;;;;;;4808607;29;20039;-80
2023/06/22 03:56:12;;;;;;;33.33;26.90;;;24.80;89.50;;;;;;4792354;29;20069;-80
2023/06/22 03:58:42;;;;;;;31.43;26.23;;;24.80;90.00;;;;;;4810309;29;20035;-79
2023/06/22 04:01:11;;;;;;;33.97;27.25;;;24.70;90.20;;;;;;4808407;29;20043;-80
2023/06/22 04:03:37;;;;;;;32.38;25.90;;;24.70;90.30;;;;;;4810129;29;20029;-79
2023/06/22 04:06:03;;;;;;;32.13;26.42;;;24.70;90.50;;;;;;4809109;29;20031;-79
2023/06/22 04:08:30;;;;;;;31.13;25.47;;;24.60;90.70;;;;;;4808896;29;20106;-79
2023/06/22 04:10:56;;;;;;;30.88;25.58;;;24.60;90.80;;;;;;4809602;29;20031;-81
2023/06/22 04:13:22;;;;;;;28.50;23.40;;;24.50;91.10;;;;;;4809602;29;20038;-80
2023/06/22 04:15:48;;;;;;;27.23;24.33;;;24.50;91.40;;;;;;4809359;29;20060;-80
2023/06/22 04:18:14;;;;;;;30.97;24.00;;;24.50;91.50;;;;;;4808728;29;20043;-80
2023/06/22 04:20:39;;;;;;;26.40;23.40;;;24.50;91.60;;;;;;4808004;29;20088;-80
2023/06/22 04:23:05;;;;;;;29.17;22.67;;;24.50;91.60;;;;;;4810201;29;20414;-79
2023/06/22 04:25:31;;;;;;;31.03;22.77;;;24.50;91.50;;;;;;4809100;29;20031;-80
2023/06/22 04:27:57;;;;;;;33.33;22.80;;;24.50;91.40;;;;;;4792624;29;20564;-79
2023/06/22 04:30:23;;;;;;;28.07;23.37;;;24.50;91.50;;;;;;4809226;29;20084;-79
2023/06/22 04:32:55;;;;;;;30.77;24.80;;;24.50;91.60;;;;;;4809409;29;20043;-79
2023/06/22 04:35:22;;;;;;;29.55;23.52;;;24.50;91.70;;;;;;4809559;29;20041;-79
2023/06/22 04:37:49;;;;;;;27.08;23.05;;;24.60;91.70;;;;;;4808599;29;20034;-80
2023/06/22 04:40:15;;;;;;;33.30;21.65;;;24.60;91.50;;;;;;4809725;29;20065;-80
2023/06/22 04:42:51;;;;;;;28.13;21.00;;;24.60;91.40;;;;;;4809589;29;20072;-79
2023/06/22 04:45:18;;;;;;;28.38;23.63;;;24.60;91.40;;;;;;4810010;29;20042;-80
2023/06/22 04:47:45;;;;;;;28.92;22.05;;;24.60;91.30;;;;;;4807760;29;20019;-79
2023/06/22 04:50:14;;;;;;;31.65;23.02;;;24.60;91.00;;;;;;4809131;29;20027;-80
2023/06/22 04:52:40;;;;;;;25.33;22.27;;;24.60;90.90;;;;;;4793009;29;20041;-79
2023/06/22 04:55:06;;;;;;;25.93;23.20;;;24.60;91.00;;;;;;4807981;29;20030;-80
2023/06/22 04:57:32;;;;;;;26.15;22.15;;;24.50;91.20;;;;;;4806866;29;20047;-81
2023/06/22 05:00:11;;;;;;;26.50;23.50;;;24.60;91.50;;;;;;4808482;29;20043;-81
2023/06/22 05:02:39;;;;;;;26.60;23.52;;;24.60;91.80;;;;;;4808450;29;20288;-80
2023/06/22 05:05:07;;;;;;;38.17;24.15;;;24.60;92.10;;;;;;4807235;29;20031;-79
2023/06/22 05:07:36;;;;;;;29.73;23.27;;;24.60;92.20;;;;;;4809301;29;20526;-82
2023/06/22 05:10:03;;;;;;;31.98;23.58;;;24.60;92.00;;;;;;4809127;29;20037;-81
2023/06/22 05:12:29;;;;;;;28.02;23.23;;;24.60;92.10;;;;;;4784672;29;20047;-82
2023/06/22 05:14:55;;;;;;;34.65;25.70;;;24.70;92.30;;;;;;4801478;29;20027;-83
2023/06/22 05:17:21;;;;;;;28.40;24.38;;;24.80;92.10;;;;;;4799074;29;20035;-82
2023/06/22 05:19:50;;;;;;;32.13;22.93;;;24.80;91.80;;;;;;4813974;29;20134;-83
2023/06/22 05:22:16;;;;;;;26.13;20.85;;;24.90;91.60;;;;;;4800147;29;20066;-82
2023/06/22 05:24:43;;;;;;;28.63;21.03;;;25.00;91.30;;;;;;4795354;29;20035;-82
2023/06/22 05:27:09;;;;;;;29.17;21.23;;;25.10;91.10;;;;;;4812646;29;20280;-82
2023/06/22 05:29:37;;;;;;;23.95;21.27;;;25.20;90.70;;;;;;4809861;29;20032;-83
2023/06/22 05:32:03;;;;;;;24.08;21.48;;;25.20;90.40;;;;;;4800055;30;20043;-83
2023/06/22 05:34:29;;;;;;;28.10;22.52;;;25.40;90.40;;;;;;4777772;30;20047;-82
2023/06/22 05:36:54;;;;;;;30.90;21.47;;;25.40;90.10;;;;;;4788979;30;20050;-81
2023/06/22 05:39:20;;;;;;;31.30;21.87;;;25.50;89.20;;;;;;4800563;30;20040;-83
2023/06/22 05:41:46;;;;;;;24.47;21.87;;;25.50;88.80;;;;;;4817527;29;20039;-83
2023/06/22 05:44:12;;;;;;;27.83;23.38;;;25.50;88.80;;;;;;4811050;29;20011;-82
2023/06/22 05:46:48;;;;;;;29.10;23.30;;;25.50;88.80;;;;;;4825938;29;20045;-82
2023/06/22 05:49:15;;;;;;;28.38;22.27;;;25.50;88.60;;;;;;4826729;29;20034;-81
2023/06/22 05:51:41;;;;;;;29.52;22.02;;;25.50;89.10;;;;;;4825527;29;20087;-81
2023/06/22 05:54:10;;;;;;;30.30;22.10;;;25.50;88.50;;;;;;4827210;29;20094;-82
2023/06/22 05:56:36;;;;;;;28.05;22.15;;;25.50;87.70;;;;;;4818134;29;20042;-81
2023/06/22 05:59:02;;;;;;;24.63;21.70;;;25.50;87.50;;;;;;4814595;29;20098;-82
2023/06/22 06:01:28;;;;;;;30.50;22.67;;;25.50;86.80;;;;;;4813026;29;20031;-80
2023/06/22 06:03:53;;;;;;;29.50;22.23;;;25.50;87.10;;;;;;4809012;29;20038;-80
2023/06/22 06:06:28;;;;;;;28.83;22.33;;;25.50;87.10;;;;;;4817319;29;20047;-83
2023/06/22 06:08:55;;;;;;;32.38;23.20;;;25.60;87.10;;;;;;4830352;29;20102;-84
2023/06/22 06:11:22;;;;;;;30.25;23.08;;;25.70;86.20;;;;;;4822601;29;20026;-83
2023/06/22 06:13:48;;;;;;;26.50;23.13;;;25.70;86.60;;;;;;4802396;29;20039;-87
2023/06/22 06:16:13;;;;;;;33.53;24.40;;;25.80;88.10;;;;;;4809007;29;20083;-83
2023/06/22 06:18:39;;;;;;;26.10;22.60;;;25.90;89.20;;;;;;4791954;29;20126;-83
2023/06/22 06:21:05;;;;;;;33.17;22.50;;;26.00;88.30;;;;;;4806020;29;20092;-83
2023/06/22 06:23:31;;;;;;;27.57;22.00;;;26.00;86.80;;;;;;4806054;29;20431;-80
2023/06/22 06:25:57;;;;;;;36.10;23.70;;;26.00;86.10;;;;;;4807770;29;20027;-82
2023/06/22 06:28:25;;;;;;;434.95;69.13;;;26.10;85.70;;;;;;4822110;29;20037;-81
2023/06/22 06:30:51;;;;;;;30.58;23.17;;;26.10;86.20;;;;;;4805947;29;20506;-82
2023/06/22 06:33:17;;;;;;;324.05;57.47;;;26.10;85.50;;;;;;4806974;29;20031;-81
2023/06/22 06:35:43;;;;;;;35.03;24.67;;;26.10;85.50;;;;;;4805765;29;20030;-81
2023/06/22 06:38:09;;;;;;;63.80;30.00;;;26.10;85.10;;;;;;4821823;29;20528;-80
2023/06/22 06:40:35;;;;;;;33.20;23.10;;;26.20;85.40;;;;;;4810041;29;20038;-79
2023/06/22 06:43:00;;;;;;;26.70;21.23;;;26.20;84.60;;;;;;4812165;29;20546;-80
2023/06/22 06:45:28;;;;;;;30.05;21.90;;;26.30;83.40;;;;;;4807100;29;20030;-79
2023/06/22 06:47:54;;;;;;;30.77;22.17;;;26.30;82.60;;;;;;4806703;29;20031;-80
2023/06/22 06:50:20;;;;;;;26.70;21.50;;;26.40;82.40;;;;;;4790704;29;20046;-80
2023/06/22 06:52:46;;;;;;;29.37;20.70;;;26.40;80.20;;;;;;4807864;29;20039;-81
2023/06/22 06:55:13;;;;;;;26.50;20.98;;;26.40;79.40;;;;;;4790765;29;20035;-81
2023/06/22 06:57:40;;;;;;;25.80;20.77;;;26.50;79.00;;;;;;4807841;29;20114;-81
2023/06/22 07:00:11;;;;;;;25.50;19.02;;;26.60;78.80;;;;;;4810612;29;20486;-82
2023/06/22 07:02:44;;;;;;;26.75;17.88;;;26.70;78.60;;;;;;4807881;29;20038;-81
2023/06/22 07:05:11;;;;;;;25.45;17.55;;;26.70;77.60;;;;;;4805192;29;20027;-82
2023/06/22 07:07:37;;;;;;;39.65;19.65;;;26.70;75.60;;;;;;4805223;29;20084;-80
2023/06/22 07:10:04;;;;;;;28.23;17.73;;;26.70;76.20;;;;;;4805314;29;20039;-79
2023/06/22 07:12:30;;;;;;;27.92;17.20;;;26.80;76.10;;;;;;4805665;29;20555;-79
2023/06/22 07:15:05;;;;;;;98.27;73.63;;;26.90;73.90;;;;;;4805547;29;20043;-82
2023/06/22 07:17:31;;;;;;;22.27;16.90;;;27.00;73.90;;;;;;4806135;29;20034;-80
2023/06/22 07:19:57;;;;;;;20.92;15.57;;;27.10;74.30;;;;;;4806995;29;20039;-80
2023/06/22 07:22:23;;;;;;;22.27;14.10;;;27.30;72.00;;;;;;4807332;29;20042;-80
2023/06/22 07:24:49;;;;;;;24.80;12.83;;;27.40;72.30;;;;;;4806844;29;20050;-80
2023/06/22 07:27:18;;;;;;;20.90;14.27;;;27.50;71.60;;;;;;4808068;29;20051;-81
2023/06/22 07:29:44;;;;;;;23.13;15.52;;;27.50;71.20;;;;;;4805389;29;20034;-81
2023/06/22 07:32:10;;;;;;;23.83;15.37;;;27.70;71.60;;;;;;4808856;29;20030;-80
2023/06/22 07:34:36;;;;;;;18.35;12.77;;;27.60;71.20;;;;;;4805764;29;20060;-79
2023/06/22 07:37:03;;;;;;;20.03;11.80;;;27.60;72.00;;;;;;4807544;29;20030;-80
2023/06/22 07:39:28;;;;;;;19.73;11.73;;;27.70;69.40;;;;;;4810781;29;20349;-78
2023/06/22 07:41:54;;;;;;;319.27;52.47;;;27.60;68.20;;;;;;4808404;29;20042;-78
2023/06/22 07:44:20;;;;;;;15.97;11.20;;;27.50;68.90;;;;;;4807162;29;20479;-79
2023/06/22 07:46:46;;;;;;;18.27;12.00;;;27.50;69.80;;;;;;4804854;29;20027;-79
2023/06/22 07:49:12;;;;;;;18.63;13.73;;;27.40;69.30;;;;;;4806105;29;20501;-80
2023/06/22 07:51:38;;;;;;;92.63;18.70;;;27.30;70.10;;;;;;4806289;29;20042;-79
2023/06/22 07:54:03;;;;;;;27.93;15.17;;;27.30;70.50;;;;;;4805731;29;20027;-80
2023/06/22 07:56:29;;;;;;;29.03;15.47;;;27.30;70.40;;;;;;4805458;29;20478;-83
2023/06/22 07:58:58;;;;;;;25.47;19.93;;;27.30;70.50;;;;;;4789722;29;20438;-81
2023/06/22 08:01:24;;;;;;;32.30;17.08;;;27.50;70.70;;;;;;4789199;29;20299;-81
2023/06/22 08:03:50;;;;;;;46.67;18.50;;;27.50;70.20;;;;;;4789618;29;20027;-80
2023/06/22 08:06:16;;;;;;;20.88;15.93;;;27.60;69.90;;;;;;4805366;29;20065;-80
2023/06/22 08:08:42;;;;;;;31.93;18.23;;;27.60;69.80;;;;;;4804295;29;20059;-79
2023/06/22 08:11:09;;;;;;;22.63;17.38;;;27.70;70.80;;;;;;4804317;29;20847;-81
2023/06/22 08:13:35;;;;;;;25.17;15.98;;;27.80;71.20;;;;;;4805796;29;20079;-80
2023/06/22 08:16:01;;;;;;;26.50;17.27;;;27.90;70.60;;;;;;4805914;29;20090;-80
2023/06/22 08:18:28;;;;;;;22.77;18.70;;;28.00;70.50;;;;;;4805329;29;20061;-80
2023/06/22 08:20:54;;;;;;;24.30;17.50;;;28.00;69.90;;;;;;4805073;29;20039;-80
2023/06/22 08:23:20;;;;;;;21.05;18.02;;;28.10;69.90;;;;;;4804887;29;20034;-80
2023/06/22 08:25:45;;;;;;;21.47;16.40;;;28.20;69.80;;;;;;4805934;29;20461;-79
2023/06/22 08:28:13;;;;;;;24.90;17.37;;;28.30;70.80;;;;;;4806259;29;20030;-80
2023/06/22 08:30:39;;;;;;;26.58;19.50;;;28.50;69.50;;;;;;4804481;29;20276;-80
2023/06/22 08:33:04;;;;;;;25.73;19.02;;;28.50;69.20;;;;;;4789653;29;20039;-80
2023/06/22 08:35:30;;;;;;;23.87;18.53;;;28.60;69.90;;;;;;4806528;29;20088;-80
2023/06/22 08:37:56;;;;;;;24.87;19.23;;;28.60;70.00;;;;;;4805039;29;20051;-80
2023/06/22 08:40:24;;;;;;;24.27;17.65;;;28.60;70.90;;;;;;4806187;29;20042;-81
2023/06/22 08:42:50;;;;;;;26.00;17.85;;;28.60;71.00;;;;;;4806117;29;20502;-80
2023/06/22 08:45:16;;;;;;;22.43;17.00;;;28.80;70.20;;;;;;4789826;29;20046;-80
2023/06/22 08:47:42;;;;;;;19.15;14.90;;;28.80;70.00;;;;;;4805043;29;20304;-80
2023/06/22 08:50:11;;;;;;;27.75;17.35;;;28.80;70.10;;;;;;4805496;29;20031;-80
2023/06/22 08:52:41;;;;;;;20.52;17.63;;;28.90;70.60;;;;;;4806193;29;20405;-80
2023/06/22 08:55:07;;;;;;;25.48;17.45;;;28.90;68.80;;;;;;4804808;29;20047;-81
2023/06/22 08:57:33;;;;;;;19.85;17.35;;;28.90;68.40;;;;;;4806448;29;20161;-80
2023/06/22 08:59:59;;;;;;;20.92;15.90;;;28.90;67.90;;;;;;4790106;29;20137;-80
2023/06/22 09:02:26;;;;;;;21.00;15.63;;;28.90;68.60;;;;;;4790950;29;20035;-80
2023/06/22 09:04:55;;;;;;;;;;;29.00;68.90;;;;;;4806268;29;20272;-80
2023/06/22 09:07:23;;;;;;;22.65;16.00;;;29.00;67.30;;;;;;4804875;29;19913;-80
2023/06/22 09:09:49;;;;;;;22.05;16.70;;;29.10;68.90;;;;;;4790031;29;20498;-80
2023/06/22 09:12:15;;;;;;;22.67;17.23;;;29.20;68.90;;;;;;4806523;29;20078;-80
2023/06/22 09:14:41;;;;;;;23.23;17.33;;;29.30;69.60;;;;;;4806084;29;20038;-81
2023/06/22 09:17:06;;;;;;;23.53;19.43;;;29.50;69.10;;;;;;4806092;29;20065;-79
2023/06/22 09:19:32;;;;;;;24.53;21.60;;;29.60;68.00;;;;;;4806372;29;20657;-80
2023/06/22 09:21:59;;;;;;;23.45;19.50;;;29.70;67.90;;;;;;4804448;29;20129;-80
2023/06/22 09:24:25;;;;;;;22.67;19.50;;;29.70;67.10;;;;;;4804707;29;20045;-80
2023/06/22 09:26:51;;;;;;;29.00;18.83;;;29.80;66.60;;;;;;4805472;29;20117;-81
2023/06/22 09:29:17;;;;;;;24.57;21.43;;;29.90;67.00;;;;;;4805041;29;20035;-80
2023/06/22 09:31:44;;;;;;;25.33;20.20;;;29.90;65.90;;;;;;4806267;29;20039;-80
2023/06/22 09:34:09;;;;;;;24.83;21.80;;;30.00;65.80;;;;;;4804508;29;20069;-80
2023/06/22 09:36:36;;;;;;;35.37;22.70;;;29.90;64.90;;;;;;4805644;29;20035;-81
2023/06/22 09:39:05;;;;;;;29.77;19.15;;;29.90;65.20;;;;;;4804673;29;20066;-80
2023/06/22 09:41:31;;;;;;;22.70;16.75;;;30.00;65.30;;;;;;4805018;29;20097;-81
2023/06/22 09:43:57;;;;;;;23.30;16.50;;;30.10;65.50;;;;;;4805853;29;20065;-80
2023/06/22 09:46:26;;;;;;;22.42;16.08;;;30.10;63.20;;;;;;4805858;29;20468;-80
2023/06/22 09:48:52;;;;;;;17.02;12.25;;;30.20;63.50;;;;;;4805844;29;20031;-80
2023/06/22 09:51:19;;;;;;;23.50;13.80;;;30.20;63.20;;;;;;4805263;29;20050;-80
2023/06/22 09:53:45;;;;;;;20.95;16.35;;;30.30;63.10;;;;;;4806651;29;20027;-80
2023/06/22 09:56:14;;;;;;;23.47;15.13;;;30.40;64.00;;;;;;4809008;29;20042;-80
2023/06/22 09:58:44;;;;;;;21.10;16.23;;;30.40;63.70;;;;;;4809390;29;20119;-80
2023/06/22 10:01:10;;;;;;;20.75;17.00;;;30.50;64.40;;;;;;4808881;29;20383;-80
2023/06/22 10:03:37;;;;;;;24.35;15.98;;;30.60;64.00;;;;;;4807649;29;20558;-80
2023/06/22 10:06:03;;;;;;;19.25;13.43;;;30.70;62.60;;;;;;4806945;29;20054;-80
2023/06/22 10:08:29;;;;;;;18.85;14.32;;;30.70;62.10;;;;;;4808723;29;20062;-80
2023/06/22 10:10:55;;;;;;;22.45;13.10;;;30.70;61.30;;;;;;4806968;29;20039;-80
2023/06/22 10:13:21;;;;;;;19.50;12.43;;;30.80;61.10;;;;;;4808303;29;20031;-80
2023/06/22 10:15:51;;;;;;;21.27;13.30;;;30.80;60.50;;;;;;4791849;29;20041;-80
2023/06/22 10:18:17;;;;;;;18.98;11.77;;;30.80;61.00;;;;;;4806410;29;20058;-81
2023/06/22 10:20:43;;;;;;;;;;;30.80;59.60;;;;;;4809169;29;20030;-80
2023/06/22 10:23:09;;;;;;;18.25;11.32;;;30.80;59.00;;;;;;4811967;29;20290;-80
2023/06/22 10:25:35;;;;;;;19.63;10.52;;;30.90;59.80;;;;;;4793452;29;20149;-80
2023/06/22 10:28:01;;;;;;;13.93;8.38;;;31.00;58.50;;;;;;4800825;29;20098;-80
2023/06/22 10:30:28;;;;;;;17.40;8.60;;;31.10;58.30;;;;;;4808206;29;20541;-81
2023/06/22 10:32:54;;;;;;;17.30;7.85;;;31.10;57.00;;;;;;4808709;29;20040;-81
2023/06/22 10:35:20;;;;;;;11.20;6.80;;;31.20;56.60;;;;;;4807552;29;20050;-80
2023/06/22 10:37:46;;;;;;;14.40;7.30;;;31.30;56.60;;;;;;4807031;29;20038;-81
2023/06/22 10:40:13;;;;;;;12.20;7.10;;;31.40;55.90;;;;;;4806580;29;20603;-81
2023/06/22 10:42:39;;;;;;;13.75;7.97;;;31.50;54.50;;;;;;4807313;29;20115;-81
2023/06/22 10:45:06;;;;;;;13.30;7.03;;;31.50;54.10;;;;;;4806484;29;20505;-81
2023/06/22 10:47:31;;;;;;;12.35;6.35;;;31.50;54.10;;;;;;4791466;29;20038;-81
2023/06/22 10:49:57;;;;;;;18.48;7.43;;;31.70;55.10;;;;;;4791416;29;20035;-82
2023/06/22 10:52:23;;;;;;;13.23;6.70;;;31.80;54.60;;;;;;4808042;29;20498;-81
2023/06/22 10:54:49;;;;;;;15.88;7.93;;;31.90;54.00;;;;;;4810309;29;20288;-81
2023/06/22 10:57:15;;;;;;;8.10;6.55;;;31.90;53.50;;;;;;4800476;29;20042;-82
2023/06/22 10:59:41;;;;;;;9.05;5.75;;;31.90;54.10;;;;;;4808026;29;20391;-81
2023/06/22 11:02:06;;;;;;;10.38;6.35;;;32.00;55.20;;;;;;4809114;29;20030;-81
2023/06/22 11:04:32;;;;;;;12.43;6.97;;;32.10;54.00;;;;;;4809217;29;20047;-81
2023/06/22 11:06:58;;;;;;;16.92;7.15;;;32.30;55.70;;;;;;4808095;29;20038;-82
2023/06/22 11:09:24;;;;;;;8.98;6.93;;;32.50;55.30;;;;;;4807400;29;20031;-80
2023/06/22 11:11:54;;;;;;;18.10;7.32;;;32.70;54.70;;;;;;4809353;29;20042;-81
2023/06/22 11:14:20;;;;;;;13.23;6.45;;;32.80;54.70;;;;;;4809407;29;20035;-81
2023/06/22 11:16:46;;;;;;;12.82;7.20;;;33.00;55.50;;;;;;4807852;29;20123;-81
2023/06/22 11:19:12;;;;;;;9.98;7.32;;;33.20;54.80;;;;;;4799865;29;20039;-81
2023/06/22 11:21:38;;;;;;;13.25;7.00;;;33.30;53.50;;;;;;4817552;29;20045;-80
2023/06/22 11:24:04;;;;;;;13.23;7.80;;;33.40;54.00;;;;;;4826985;29;20039;-80
2023/06/22 11:26:31;;;;;;;11.95;7.75;;;33.40;53.70;;;;;;4814335;29;20045;-80
2023/06/22 11:28:58;;;;;;;23.80;20.13;;;33.60;55.00;;;;;;4806846;29;20038;-81
2023/06/22 11:31:24;;;;;;;549.47;288.23;;;33.80;54.50;;;;;;4804656;29;20087;-80
2023/06/22 11:33:49;;;;;;;27.98;19.75;;;34.00;53.40;;;;;;4806688;29;20047;-80
2023/06/22 11:36:15;;;;;;;14.70;8.45;;;34.10;53.00;;;;;;4807041;29;20034;-81
2023/06/22 11:38:42;;;;;;;14.68;7.25;;;34.00;53.00;;;;;;4807727;29;20035;-80
2023/06/22 11:41:09;;;;;;;11.35;8.65;;;34.00;51.80;;;;;;4802009;29;20047;-81
2023/06/22 11:43:36;;;;;;;11.68;8.27;;;34.10;53.40;;;;;;4809760;29;20030;-80
2023/06/22 11:46:03;;;;;;;19.02;7.65;;;34.30;53.60;;;;;;4792704;29;20096;-80
2023/06/22 11:48:30;;;;;;;9.82;6.78;;;34.50;52.90;;;;;;4809457;29;20074;-80
2023/06/22 11:50:56;;;;;;;;;;;34.80;52.40;;;;;;4817645;24;20064;-79
2023/06/22 11:53:26;;;;;;;10.88;5.95;;;34.90;51.30;;;;;;4790108;29;19917;-79
2023/06/22 11:55:53;;;;;;;10.02;6.97;;;35.10;52.70;;;;;;4789902;29;20039;-79
2023/06/22 11:58:19;;;;;;;13.63;6.15;;;35.30;50.80;;;;;;4788854;30;20092;-79
2023/06/22 12:00:45;;;;;;;11.07;5.95;;;35.50;51.10;;;;;;4789741;29;20031;-79
2023/06/22 12:03:11;;;;;;;10.45;6.25;;;35.60;51.60;;;;;;4788465;30;20494;-79
2023/06/22 12:05:38;;;;;;;10.18;6.15;;;35.60;50.60;;;;;;4789968;29;20028;-79
2023/06/22 12:08:04;;;;;;;13.13;5.70;;;35.50;50.10;;;;;;4790670;29;20043;-79
2023/06/22 12:10:30;;;;;;;10.52;5.90;;;35.40;51.10;;;;;;4788149;29;20136;-79
2023/06/22 12:12:57;;;;;;;11.00;5.75;;;35.40;50.60;;;;;;4788788;30;20064;-79
2023/06/22 12:15:23;;;;;;;14.43;5.45;;;35.30;49.20;;;;;;4789320;29;20063;-80
2023/06/22 12:17:49;;;;;;;;;;;35.30;49.50;;;;;;4788314;30;20035;-80
2023/06/22 12:20:15;;;;;;;10.38;5.30;;;35.40;49.90;;;;;;4789121;29;19914;-79
2023/06/22 12:22:42;;;;;;;11.63;5.63;;;35.50;49.10;;;;;;4788425;30;20060;-79
2023/06/22 12:25:08;;;;;;;9.57;6.03;;;35.70;49.40;;;;;;4790221;29;20077;-80
2023/06/22 12:27:35;;;;;;;15.57;5.85;;;35.90;50.50;;;;;;4790447;29;20031;-79
2023/06/22 12:30:01;;;;;;;8.77;6.22;;;36.00;48.80;;;;;;4788076;29;20042;-79